M I D A S
Marine Information and Data Acquisition System
Tripno 731 of the Zeeleeuw from 2004-06-08 06:06:44 to 2004-06-08 15:33:51
Back to CruiseResearch ActivitiesStationsMapUnderway DataData graphs

EquipmentUnitsComment
TimeDGPSUTC
LatitudeDGPSDM.mWGS84
LongitudeDGPSDM.mWGS84
HeadingGyrodeg 
SOGDGPSknotsSpeed over ground
COGDGPSdegCourse over ground
DepthEcho soundermeters200 kHz
Missing or incorrect values are displayed as -999
Navigation data collected by the RV Zeeleeuw from 2004-06-08 06:06:44 to 2004-06-08 15:33:51
                                                                                    Next 1000 lines
Time Latitude Longitude Heading SOG COG Depth
2004-06-08 06:06:52 51°13.601 2°56.098 127.1   219 8.8
2004-06-08 06:06:56 51°13.601 2°56.098 127.1   66 8.8
2004-06-08 06:07:02 51°13.6 2°56.099 127.1   54 8.8
2004-06-08 06:07:06 51°13.6 2°56.099 127   82 8.8
2004-06-08 06:07:11 51°13.6 2°56.099 126.4   131 8.8
2004-06-08 06:07:16 51°13.6 2°56.099 125.6 0.1 166 8.8
2004-06-08 06:07:22 51°13.6 2°56.099 124.3 0.1 175 8.8
2004-06-08 06:07:25 51°13.6 2°56.099 123 0.1 187 8.8
2004-06-08 06:07:31 51°13.6 2°56.099 121.8 0.1 195 8.8
2004-06-08 06:07:37 51°13.599 2°56.099 120.4 0.1 188 8.7
2004-06-08 06:07:41 51°13.599 2°56.098 119 0.1 185 8.8
2004-06-08 06:07:46 51°13.599 2°56.098 117.7 0.1 185 8.9
2004-06-08 06:07:52 51°13.598 2°56.098 116.1 0.1 188 8.8
2004-06-08 06:07:56 51°13.598 2°56.098 114.3 0.1 209 8.8
2004-06-08 06:08:01 51°13.598 2°56.098 112.8 0.1 220 8.8
2004-06-08 06:08:05 51°13.598 2°56.097 111.6 0.2 249 8.8
2004-06-08 06:08:11 51°13.598 2°56.096 110.9 0.7 289 8.9
2004-06-08 06:08:16 51°13.598 2°56.093 110.4 1.3 279 9
2004-06-08 06:08:21 51°13.599 2°56.089 110.2 1.6 288 9.4
2004-06-08 06:08:26 51°13.6 2°56.085 110.4 2.1 284 10
2004-06-08 06:08:32 51°13.602 2°56.079 111.7 2.2 287 -999
2004-06-08 06:08:37 51°13.603 2°56.073 113.3 2.8 289 -999
2004-06-08 06:08:42 51°13.605 2°56.066 114.7 3.1 292 -999
2004-06-08 06:08:45 51°13.605 2°56.062 115.7 3.5 292 -999
2004-06-08 06:08:52 51°13.608 2°56.051 116.1 3.7 293 -999
2004-06-08 06:08:57 51°13.61 2°56.043 116.6 4.1 293 -999
2004-06-08 06:09:02 51°13.613 2°56.034 116.8 4.3 293 -999
2004-06-08 06:09:07 51°13.615 2°56.024 116.9 4.5 293 -999
2004-06-08 06:09:12 51°13.617 2°56.015 117.2 4.8 293 -999
2004-06-08 06:09:17 51°13.62 2°56.004 117.8 4.9 294 -999
2004-06-08 06:09:22 51°13.623 2°55.994 118.5 5 294 -999
2004-06-08 06:09:27 51°13.625 2°55.983 119.4 5.2 295 -999
2004-06-08 06:09:32 51°13.629 2°55.973 119.9 5.4 295 -999
2004-06-08 06:09:36 51°13.631 2°55.964 120.7 5.4 296 -999
2004-06-08 06:09:42 51°13.635 2°55.952 121.3 5.4 297 -999
2004-06-08 06:09:47 51°13.639 2°55.941 121.6 5.5 297 -999
2004-06-08 06:09:52 51°13.642 2°55.93 121.8 5.5 297 -999
2004-06-08 06:09:57 51°13.646 2°55.919 121.8 5.5 297 -999
2004-06-08 06:10:02 51°13.649 2°55.908 121.5 5.5 298 -999
2004-06-08 06:10:07 51°13.653 2°55.897 120.8 5.5 297 -999
2004-06-08 06:10:12 51°13.656 2°55.886 119.9 5.5 296 -999
2004-06-08 06:10:17 51°13.66 2°55.875 118.5 5.5 295 -999
2004-06-08 06:10:22 51°13.663 2°55.864 117.3 5.6 294 -999
2004-06-08 06:10:25 51°13.665 2°55.857 115.6 5.6 293 -999
2004-06-08 06:10:32 51°13.669 2°55.841 113.8 5.6 291 -999
2004-06-08 06:10:37 51°13.671 2°55.83 111.5 5.6 289 -999
2004-06-08 06:10:42 51°13.674 2°55.818 109.9 5.6 288 -999
2004-06-08 06:10:46 51°13.675 2°55.808 107.4 5.6 285 -999
2004-06-08 06:10:52 51°13.677 2°55.794 105.3 5.6 284 -999
2004-06-08 06:10:57 51°13.679 2°55.783 103.8 5.4 284 -999
2004-06-08 06:11:02 51°13.681 2°55.772 103.4 5.1 284 -999
2004-06-08 06:11:07 51°13.682 2°55.763 102.4 4.4 283 -999
2004-06-08 06:11:12 51°13.683 2°55.756 100.9 3.3 282 -999
2004-06-08 06:11:17 51°13.684 2°55.751 97.6 2.3 283 14.5
2004-06-08 06:11:22 51°13.684 2°55.749 93.6 1.5 291 15.1
2004-06-08 06:11:26 51°13.685 2°55.749 87.6 0.6 343 15.3
2004-06-08 06:11:32 51°13.687 2°55.751 82 0.7 14 15.3
2004-06-08 06:11:36 51°13.688 2°55.753 71.6 1.9 42 15.3
2004-06-08 06:11:41 51°13.691 2°55.757 61.8 2.5 41 15.7
2004-06-08 06:11:45 51°13.694 2°55.76 52.1 2.8 37 16.1
2004-06-08 06:11:52 51°13.698 2°55.764 45 2.8 29 16.3
2004-06-08 06:11:56 51°13.701 2°55.766 37.6 2.3 24 16.6
2004-06-08 06:12:02 51°13.703 2°55.767 34.9 1.7 25 15.8
2004-06-08 06:12:06 51°13.703 2°55.767 31.6 0.8 14 15.5
2004-06-08 06:12:12 51°13.703 2°55.767 27.9 0.5 9 15.5
2004-06-08 06:12:16 51°13.703 2°55.767 25.4 0.5 206 15.5
2004-06-08 06:12:22 51°13.701 2°55.766 24 1 203 15.7
2004-06-08 06:12:26 51°13.699 2°55.764 23.2 1.5 202 16.5
2004-06-08 06:12:32 51°13.696 2°55.763 23 1.9 203 -999
2004-06-08 06:12:36 51°13.694 2°55.761 22.8 1.7 202 -999
2004-06-08 06:12:41 51°13.693 2°55.76 23.2 1.3 208 -999
2004-06-08 06:12:47 51°13.693 2°55.76 23.2 0.6 211 -999
2004-06-08 06:12:52 51°13.695 2°55.76 18.5 1.2 355 -999
2004-06-08 06:12:57 51°13.698 2°55.76 13.3 1.9 1 -999
2004-06-08 06:13:02 51°13.702 2°55.759 5 2.6 353 -999
2004-06-08 06:13:06 51°13.706 2°55.757 355.8 3.5 345 -999
2004-06-08 06:13:12 51°13.711 2°55.754 346.9 3.6 336 -999
2004-06-08 06:13:17 51°13.716 2°55.75 339.6 3.5 334 -999
2004-06-08 06:13:21 51°13.719 2°55.747 334.7 3.6 331 14.3
2004-06-08 06:13:26 51°13.724 2°55.742 331.6 3.8 327 13.1
2004-06-08 06:13:32 51°13.729 2°55.735 329.2 4 327 12.5
2004-06-08 06:13:36 51°13.733 2°55.731 327.2 4 323 12.2
2004-06-08 06:13:41 51°13.738 2°55.724 326.3 4.8 323 12.1
2004-06-08 06:13:45 51°13.743 2°55.719 326.7 5.1 323 11.8
2004-06-08 06:13:52 51°13.752 2°55.709 328.2 5.5 325 11.3
2004-06-08 06:13:56 51°13.758 2°55.703 329.1 5.9 326 11.5
2004-06-08 06:14:02 51°13.766 2°55.694 330.2 6.2 327 11.5
2004-06-08 06:14:05 51°13.771 2°55.69 332.2 6.4 328 11.3
2004-06-08 06:14:11 51°13.781 2°55.681 334.2 6.7 331 11.3
2004-06-08 06:14:17 51°13.791 2°55.673 336.3 6.9 333 11.4
2004-06-08 06:14:21 51°13.799 2°55.667 337.7 7.1 333 11.3
2004-06-08 06:14:26 51°13.808 2°55.661 338.6 7.3 335 11.4
2004-06-08 06:14:32 51°13.819 2°55.652 339.7 7.4 335 11.7
2004-06-08 06:14:36 51°13.827 2°55.647 340.7 7.6 336 11.7
2004-06-08 06:14:40 51°13.834 2°55.641 341.2 7.7 336 11.8
2004-06-08 06:14:46 51°13.846 2°55.633 341.8 7.8 337 11.5
2004-06-08 06:14:52 51°13.858 2°55.625 342.9 7.9 337 11.3
2004-06-08 06:14:56 51°13.867 2°55.62 344 7.9 339 11.6
2004-06-08 06:15:01 51°13.877 2°55.614 344.4 7.9 339 11.5
2004-06-08 06:15:05 51°13.885 2°55.61 345.8 7.9 341 11.7
2004-06-08 06:15:12 51°13.9 2°55.602 346.7 7.9 342 11.7
2004-06-08 06:15:16 51°13.908 2°55.597 346.9 8 342 11.9
2004-06-08 06:15:21 51°13.918 2°55.591 346.4 8 341 11.9
2004-06-08 06:15:26 51°13.929 2°55.585 346.1 8.1 341 12.4
2004-06-08 06:15:32 51°13.942 2°55.578 345.8 8.1 340 12.2
2004-06-08 06:15:36 51°13.95 2°55.573 345.5 8.1 340 12.4
2004-06-08 06:15:42 51°13.963 2°55.566 345.4 8.1 340 12.4
2004-06-08 06:15:46 51°13.971 2°55.56 345.3 8.1 340 12.9
2004-06-08 06:15:51 51°13.982 2°55.554 345.3 8.1 340 13.1
2004-06-08 06:15:56 51°13.992 2°55.548 345.1 8.2 339 13.3
2004-06-08 06:16:01 51°14.003 2°55.541 344.6 8.2 339 13.1
2004-06-08 06:16:05 51°14.011 2°55.536 343.6 8.2 338 13.2
2004-06-08 06:16:12 51°14.026 2°55.526 342.9 8.2 337 13
2004-06-08 06:16:16 51°14.035 2°55.52 342.7 8.3 337 13.3
2004-06-08 06:16:22 51°14.048 2°55.511 342.4 8.5 336 13.4
2004-06-08 06:16:25 51°14.055 2°55.506 341.8 8.7 336 13.4
2004-06-08 06:16:31 51°14.068 2°55.497 341.4 8.9 336 13.4
2004-06-08 06:16:37 51°14.082 2°55.487 340.7 9.1 335 13.4
2004-06-08 06:16:41 51°14.091 2°55.479 340.1 9.2 334 13
2004-06-08 06:16:46 51°14.103 2°55.47 339.2 9.3 333 13
2004-06-08 06:16:52 51°14.116 2°55.458 338.2 9.4 332 12.8
2004-06-08 06:16:56 51°14.126 2°55.45 336.7 9.5 330 12.9
2004-06-08 06:17:02 51°14.14 2°55.437 335.4 9.6 330 13.4
2004-06-08 06:17:06 51°14.149 2°55.428 334.5 9.6 329 13.8
2004-06-08 06:17:12 51°14.163 2°55.414 333.7 9.7 328 13.1
2004-06-08 06:17:17 51°14.174 2°55.402 332.4 9.8 326 13.2
2004-06-08 06:17:21 51°14.183 2°55.392 330.6 9.8 325 13.2
2004-06-08 06:17:26 51°14.194 2°55.379 329 9.8 324 13.3
2004-06-08 06:17:38 51°14.219 2°55.345 325.6 10.2 320 13.3
2004-06-08 06:17:44 51°14.232 2°55.326 324.4 10.3 319 13.4
2004-06-08 06:17:48 51°14.241 2°55.314 323.1 10.5 317 13.2
2004-06-08 06:17:53 51°14.251 2°55.297 321.9 10.7 316 13.2
2004-06-08 06:17:58 51°14.262 2°55.28 320.8 10.9 315 13.4
2004-06-08 06:18:03 51°14.273 2°55.262 319.6 11.1 314 13.3
2004-06-08 06:18:09 51°14.285 2°55.239 318.6 11.3 312 13.3
2004-06-08 06:18:13 51°14.294 2°55.224 317.5 11.5 312 13.3
2004-06-08 06:18:18 51°14.304 2°55.204 316.9 11.5 311 12.9
2004-06-08 06:18:24 51°14.316 2°55.18 316.2 11.6 311 12.9
2004-06-08 06:18:29 51°14.326 2°55.16 315 11.7 308 12.4
2004-06-08 06:18:33 51°14.334 2°55.143 313.5 11.8 307 12.8
2004-06-08 06:18:38 51°14.344 2°55.122 312.3 12 306 12.5
2004-06-08 06:18:43 51°14.353 2°55.1 311.6 12 306 12.4
2004-06-08 06:18:48 51°14.363 2°55.078 310.9 12.3 304 12.4
2004-06-08 06:18:54 51°14.374 2°55.05 309.4 12.5 303 12.7
2004-06-08 06:18:58 51°14.382 2°55.031 307.9 12.8 303 12.8
2004-06-08 06:19:04 51°14.394 2°55.002 308 12.8 303 12.8
2004-06-08 06:19:09 51°14.403 2°54.978 307.9 13.2 303 12.7
2004-06-08 06:19:13 51°14.412 2°54.958 307.9 13.3 304 12.7
2004-06-08 06:19:18 51°14.422 2°54.934 308.8 13.4 304 12.7
2004-06-08 06:19:24 51°14.435 2°54.905 309.2 13.4 305 12.6
2004-06-08 06:19:29 51°14.446 2°54.881 310 13.5 306 12.6
2004-06-08 06:19:33 51°14.455 2°54.862 310.9 13.5 308 12.4
2004-06-08 06:19:38 51°14.467 2°54.838 312 13.5 308 12.4
2004-06-08 06:19:44 51°14.482 2°54.811 312.8 13.5 309 12.4
2004-06-08 06:19:49 51°14.494 2°54.788 313.8 13.5 311 12.3
2004-06-08 06:19:52 51°14.502 2°54.775 314.7 13.6 313 12.2
2004-06-08 06:19:58 51°14.517 2°54.75 316.3 13.5 314 12
2004-06-08 06:20:02 51°14.528 2°54.733 317.6 13.4 315 12
2004-06-08 06:20:09 51°14.547 2°54.704 317.9 13.4 315 12
2004-06-08 06:20:14 51°14.56 2°54.684 317.9 13.4 316 12
2004-06-08 06:20:18 51°14.571 2°54.667 318.1 13.4 316 11.9
2004-06-08 06:20:29 51°14.599 2°54.621 317.5 13.3 315 11.7
2004-06-08 06:20:34 51°14.612 2°54.6 317.4 13.3 315 11.7
2004-06-08 06:20:41 51°14.63 2°54.571 317.1 13.3 315 11.6
2004-06-08 06:20:45 51°14.641 2°54.554 316.6 13.3 314 11.6
2004-06-08 06:20:57 51°14.671 2°54.503 315 13.3 313 11.7
2004-06-08 06:21:03 51°14.686 2°54.477 315 13.3 313 11.8
2004-06-08 06:21:09 51°14.702 2°54.452 315 13.3 314 11.8
2004-06-08 06:21:13 51°14.712 2°54.435 315.2 13.3 314 11.8
2004-06-08 06:21:18 51°14.725 2°54.414 315.7 13.3 315 11.8
2004-06-08 06:21:24 51°14.74 2°54.389 316.1 13.3 314 11.8
2004-06-08 06:21:29 51°14.753 2°54.368 316 13.3 314 11.7
2004-06-08 06:21:33 51°14.763 2°54.351 315.8 13.2 313 11.6
2004-06-08 06:21:38 51°14.776 2°54.329 315.7 13.2 314 11.6
2004-06-08 06:21:43 51°14.787 2°54.307 315.1 13.2 311 11.6
2004-06-08 06:21:49 51°14.801 2°54.28 313.1 13.2 310 11.6
2004-06-08 06:21:54 51°14.813 2°54.257 312.1 13.2 308 11.8
2004-06-08 06:21:57 51°14.819 2°54.243 310.9 13.2 308 11.5
2004-06-08 06:22:04 51°14.835 2°54.21 310.6 13.3 307 11.4
2004-06-08 06:22:07 51°14.842 2°54.197 310.2 13.3 307 11.2
2004-06-08 06:22:13 51°14.855 2°54.169 309.9 13.2 307 11.1
2004-06-08 06:22:18 51°14.866 2°54.146 310.1 13.2 308 11
2004-06-08 06:22:24 51°14.88 2°54.118 310.7 13.2 308 11
2004-06-08 06:22:28 51°14.889 2°54.099 310.7 13.2 306 10.9
2004-06-08 06:22:33 51°14.899 2°54.075 308.3 13.2 304 10.8
2004-06-08 06:22:37 51°14.907 2°54.056 306.1 13.2 302 10.9
2004-06-08 06:22:44 51°14.92 2°54.021 304.2 13.1 301 10.9
2004-06-08 06:22:48 51°14.927 2°54.001 303 13.1 301 11
2004-06-08 06:22:52 51°14.934 2°53.981 302 13.1 300 11
2004-06-08 06:22:59 51°14.947 2°53.946 301.4 13.1 300 11
2004-06-08 06:23:02 51°14.952 2°53.93 301 13.2 299 11.2
2004-06-08 06:23:09 51°14.964 2°53.894 300.6 13.2 298 11.1
2004-06-08 06:23:13 51°14.971 2°53.873 300.2 13.2 298 11.3
2004-06-08 06:23:18 51°14.979 2°53.847 299.8 13.2 298 11.2
2004-06-08 06:23:24 51°14.989 2°53.817 299.6 13.2 297 11.3
2004-06-08 06:23:29 51°14.998 2°53.791 299.8 13.2 298 11.4
2004-06-08 06:23:33 51°15.005 2°53.77 300.4 13.2 298 11.3
2004-06-08 06:23:38 51°15.014 2°53.745 301.1 13.2 299 11.4
2004-06-08 06:23:44 51°15.024 2°53.714 301.4 13.2 299 11.4
2004-06-08 06:23:48 51°15.032 2°53.694 301.7 13.2 299 11.4
2004-06-08 06:23:53 51°15.041 2°53.669 302 13.2 299 11.4
2004-06-08 06:23:57 51°15.048 2°53.649 302.6 13.2 300 11.4
2004-06-08 06:24:04 51°15.061 2°53.613 302.9 13.2 300 11.4
2004-06-08 06:24:08 51°15.068 2°53.593 302.9 13.2 300 11.4
2004-06-08 06:24:14 51°15.079 2°53.563 302.9 13.1 300 11.5
2004-06-08 06:24:19 51°15.088 2°53.538 302.7 13.1 300 11.4
2004-06-08 06:24:23 51°15.095 2°53.518 302.5 13.1 299 11.4
2004-06-08 06:24:28 51°15.104 2°53.493 302.1 13.1 299 11.4
2004-06-08 06:24:33 51°15.113 2°53.467 301.9 13.1 299 11.5
2004-06-08 06:24:37 51°15.12 2°53.447 301.8 13.1 299 11.5
2004-06-08 06:24:44 51°15.132 2°53.412 301.6 13.1 299 11.5
2004-06-08 06:24:49 51°15.141 2°53.386 301.6 13.1 299 11.5
2004-06-08 06:24:54 51°15.149 2°53.361 301.9 13.1 299 11.6
2004-06-08 06:24:58 51°15.157 2°53.341 302.4 13.1 300 11.7
2004-06-08 06:25:04 51°15.168 2°53.311 302.9 13.2 300 11.8
2004-06-08 06:25:08 51°15.175 2°53.291 303.2 13.1 300 11.7
2004-06-08 06:25:13 51°15.184 2°53.266 303.2 13.1 300 11.8
2004-06-08 06:25:18 51°15.193 2°53.24 303 13.2 299 11.9
2004-06-08 06:25:24 51°15.204 2°53.21 302.7 13.2 299 11.9
2004-06-08 06:25:29 51°15.213 2°53.185 302.7 13.2 300 11.9
2004-06-08 06:25:32 51°15.219 2°53.17 302.7 13.2 300 11.9
2004-06-08 06:25:38 51°15.23 2°53.14 303.2 13.2 301 12.1
2004-06-08 06:25:44 51°15.242 2°53.11 303.8 13.2 301 12
2004-06-08 06:25:49 51°15.251 2°53.085 303.8 13.2 301 12.2
2004-06-08 06:25:53 51°15.258 2°53.065 303.5 13.2 301 12.2
2004-06-08 06:25:58 51°15.268 2°53.04 303.2 13.2 300 12.3
2004-06-08 06:26:04 51°15.279 2°53.009 302.7 13.3 300 12.3
2004-06-08 06:26:08 51°15.286 2°52.989 302.5 13.3 300 12.4
2004-06-08 06:26:12 51°15.293 2°52.968 302.5 13.3 300 12.4
2004-06-08 06:26:18 51°15.305 2°52.938 302.5 13.3 300 12.4
2004-06-08 06:26:22 51°15.312 2°52.918 302.9 13.3 301 12.5
2004-06-08 06:26:29 51°15.326 2°52.883 303.4 13.3 302 12.6
2004-06-08 06:26:34 51°15.336 2°52.858 303.9 13.3 302 12.6
2004-06-08 06:26:38 51°15.344 2°52.838 304 13.3 301 12.7
2004-06-08 06:26:42 51°15.351 2°52.818 303.8 13.3 301 12.7
2004-06-08 06:26:49 51°15.365 2°52.782 303.3 13.3 301 12.8
2004-06-08 06:26:53 51°15.372 2°52.762 303.1 13.3 301 12.8
2004-06-08 06:26:58 51°15.381 2°52.737 303 13.3 301 12.9
2004-06-08 06:27:04 51°15.393 2°52.707 302.9 13.2 301 12.9
2004-06-08 06:27:09 51°15.402 2°52.682 303 13.2 299 13
2004-06-08 06:27:14 51°15.41 2°52.656 302.8 13.1 299 12.9
2004-06-08 06:27:18 51°15.414 2°52.634 299.9 12.9 291 13
2004-06-08 06:27:24 51°15.42 2°52.601 294.5 12.9 289 13.1
2004-06-08 06:27:28 51°15.423 2°52.579 288.9 12.9 283 13.1
2004-06-08 06:27:32 51°15.426 2°52.557 285.9 12.9 282 13.2
2004-06-08 06:27:37 51°15.43 2°52.529 284 12.9 281 13.3
2004-06-08 06:27:44 51°15.433 2°52.489 282.6 12.9 279 13.3
2004-06-08 06:27:48 51°15.435 2°52.467 281.2 12.9 278 13.4
2004-06-08 06:27:53 51°15.438 2°52.439 280.1 12.9 277 13.4
2004-06-08 06:27:57 51°15.439 2°52.416 279.4 13 277 13.4
2004-06-08 06:28:04 51°15.442 2°52.376 279.2 13 277 13.4
2004-06-08 06:28:09 51°15.444 2°52.348 278.8 13 277 13.4
2004-06-08 06:28:13 51°15.446 2°52.325 278.7 13 276 13.5
2004-06-08 06:28:18 51°15.448 2°52.296 278.7 13 277 13.5
2004-06-08 06:28:24 51°15.45 2°52.262 278.6 13 277 13.5
2004-06-08 06:28:28 51°15.452 2°52.239 278.6 13 277 13.6
2004-06-08 06:28:33 51°15.454 2°52.211 278.5 13 277 13.6
2004-06-08 06:28:38 51°15.456 2°52.182 278.7 13 277 13.6
2004-06-08 06:28:44 51°15.459 2°52.148 278.7 13 277 13.7
2004-06-08 06:28:49 51°15.461 2°52.12 278.9 13 277 13.7
2004-06-08 06:28:54 51°15.462 2°52.091 279 12.9 276 13.7
2004-06-08 06:28:58 51°15.463 2°52.069 277.5 12.8 273 13.8
2004-06-08 06:29:02 51°15.464 2°52.046 275.5 12.8 273 13.8
2004-06-08 06:29:09 51°15.464 2°52.006 274.1 12.8 271 13.8
2004-06-08 06:29:13 51°15.464 2°51.984 273.2 12.8 271 13.8
2004-06-08 06:29:18 51°15.464 2°51.955 272.5 12.8 269 13.9
2004-06-08 06:29:23 51°15.464 2°51.927 271.7 12.8 269 13.9
2004-06-08 06:29:29 51°15.463 2°51.892 271.5 12.9 269 13.9
2004-06-08 06:29:33 51°15.463 2°51.87 271.4 12.9 270 14
2004-06-08 06:29:38 51°15.463 2°51.841 271.7 12.9 269 14
2004-06-08 06:29:44 51°15.462 2°51.807 271.3 12.9 269 14
2004-06-08 06:29:49 51°15.46 2°51.779 268.9 12.9 265 14
2004-06-08 06:29:53 51°15.459 2°51.756 267.8 12.9 265 14.1
2004-06-08 06:29:58 51°15.456 2°51.728 266.4 12.8 263 14.1
2004-06-08 06:30:02 51°15.455 2°51.705 265.5 12.8 263 14.1
2004-06-08 06:30:09 51°15.451 2°51.666 264.9 12.8 263 14.2
2004-06-08 06:30:14 51°15.448 2°51.638 264.9 12.8 262 14.1
2004-06-08 06:30:18 51°15.446 2°51.616 264.3 12.8 261 14.1
2004-06-08 06:30:24 51°15.442 2°51.582 263.4 12.8 261 14.2
2004-06-08 06:30:29 51°15.44 2°51.554 263.3 12.8 261 14.2
2004-06-08 06:30:33 51°15.438 2°51.532 263.7 12.8 262 14.2
2004-06-08 06:30:38 51°15.435 2°51.504 264.5 12.8 263 14.2
2004-06-08 06:30:44 51°15.433 2°51.47 264.8 12.8 262 14.3
2004-06-08 06:30:49 51°15.43 2°51.442 264.8 12.9 262 14.3
2004-06-08 06:30:53 51°15.429 2°51.419 264.9 12.9 263 14.3
2004-06-08 06:30:58 51°15.426 2°51.391 265.1 12.9 262 14.3
2004-06-08 06:31:02 51°15.424 2°51.368 265.3 12.9 263 14.2
2004-06-08 06:31:09 51°15.421 2°51.329 265.4 12.9 263 14.3
2004-06-08 06:31:14 51°15.419 2°51.3 265.6 12.9 264 14.3
2004-06-08 06:31:16 51°15.418 2°51.289 265.8 12.9 262 14.3
2004-06-08 06:31:24 51°15.414 2°51.243 265.3 13 263 14.3
2004-06-08 06:31:29 51°15.412 2°51.215 265 13 262 14.4
2004-06-08 06:31:33 51°15.41 2°51.192 264.7 13 262 14.4
2004-06-08 06:31:38 51°15.407 2°51.164 264.8 13 262 14.4
2004-06-08 06:31:42 51°15.405 2°51.141 265.2 13 263 14.4
2004-06-08 06:31:49 51°15.402 2°51.101 265.7 13 263 14.4
2004-06-08 06:31:54 51°15.4 2°51.073 265.8 13 263 14.4
2004-06-08 06:31:58 51°15.398 2°51.05 265.9 13 263 14.4
2004-06-08 06:32:04 51°15.395 2°51.016 266 12.9 263 14.4
2004-06-08 06:32:09 51°15.392 2°50.988 264.8 12.9 259 14.4
2004-06-08 06:32:14 51°15.388 2°50.96 263.4 12.9 260 14.4
2004-06-08 06:32:18 51°15.385 2°50.937 262.4 13 258 14.4
2004-06-08 06:32:23 51°15.382 2°50.91 261.5 12.9 258 14.4
2004-06-08 06:32:29 51°15.377 2°50.877 261 12.9 257 14.4
2004-06-08 06:32:34 51°15.373 2°50.849 260.5 12.9 257 14.4
2004-06-08 06:32:44 51°15.365 2°50.793 260.2 12.9 257 14.4
2004-06-08 06:32:51 51°15.36 2°50.754 260.5 12.9 257 14.4
2004-06-08 06:32:56 51°15.356 2°50.726 260.6 12.9 258 14.4
2004-06-08 06:33:02 51°15.351 2°50.692 260.6 13 257 14.4
2004-06-08 06:33:05 51°15.349 2°50.676 260.5 13 258 14.4
2004-06-08 06:33:11 51°15.344 2°50.642 260.5 13 258 14.4
2004-06-08 06:33:17 51°15.339 2°50.608 260.6 13 258 14.5
2004-06-08 06:33:21 51°15.336 2°50.586 260.5 13 257 14.5
2004-06-08 06:33:26 51°15.332 2°50.558 260.4 13 257 14.5
2004-06-08 06:33:32 51°15.328 2°50.524 260.1 13 257 14.5
2004-06-08 06:33:36 51°15.325 2°50.502 260.3 13 258 14.4
2004-06-08 06:33:40 51°15.322 2°50.48 260.5 13 258 14.4
2004-06-08 06:33:49 51°15.315 2°50.429 260.9 13 258 14.5
2004-06-08 06:33:56 51°15.31 2°50.39 260.9 13 258 14.5
2004-06-08 06:34:01 51°15.306 2°50.362 260.6 13 258 14.4
2004-06-08 06:34:06 51°15.302 2°50.334 260.5 13 258 14.4
2004-06-08 06:34:10 51°15.299 2°50.311 260.3 13 258 14.4
2004-06-08 06:34:16 51°15.294 2°50.278 260.3 13 258 14.4
2004-06-08 06:34:21 51°15.291 2°50.249 260.3 13 259 14.4
2004-06-08 06:34:26 51°15.287 2°50.221 260.8 13 258 14.4
2004-06-08 06:34:30 51°15.284 2°50.199 260.7 13 258 14.5
2004-06-08 06:34:36 51°15.28 2°50.165 261.5 13 260 14.4
2004-06-08 06:34:41 51°15.278 2°50.137 262.3 13 261 14.4
2004-06-08 06:34:45 51°15.275 2°50.114 262.9 13 261 14.4
2004-06-08 06:34:50 51°15.272 2°50.086 263.4 13 261 14.4
2004-06-08 06:34:53 51°15.271 2°50.069 263.1 12.9 261 14.4
2004-06-08 06:35:00 51°15.266 2°50.03 263 12.9 260 14.4
2004-06-08 06:35:05 51°15.263 2°50.001 262.8 12.9 261 14.4
2004-06-08 06:35:10 51°15.26 2°49.973 262.8 12.9 260 14.4
2004-06-08 06:35:15 51°15.257 2°49.945 262.7 12.9 260 14.4
2004-06-08 06:35:20 51°15.254 2°49.917 262.6 12.9 261 14.4
2004-06-08 06:35:25 51°15.251 2°49.889 262.7 12.9 260 14.4
2004-06-08 06:35:30 51°15.248 2°49.861 263 12.9 261 14.4
2004-06-08 06:35:36 51°15.245 2°49.827 263.1 12.9 260 14.4
2004-06-08 06:35:40 51°15.242 2°49.805 263 12.9 260 14.4
2004-06-08 06:35:46 51°15.238 2°49.771 263 12.9 260 14.4
2004-06-08 06:35:50 51°15.236 2°49.749 262.8 12.9 260 14.4
2004-06-08 06:35:53 51°15.234 2°49.732 263 13 260 14.4
2004-06-08 06:36:01 51°15.229 2°49.686 263.3 13 261 14.4
2004-06-08 06:36:06 51°15.226 2°49.658 263.4 13 260 14.4
2004-06-08 06:36:10 51°15.224 2°49.635 263.4 13 260 14.3
2004-06-08 06:36:16 51°15.22 2°49.602 263.5 13 261 14.3
2004-06-08 06:36:21 51°15.217 2°49.573 263.4 13 260 14.4
2004-06-08 06:36:25 51°15.214 2°49.551 263.3 13 260 14.3
2004-06-08 06:36:29 51°15.211 2°49.528 262.9 13 259 14.3
2004-06-08 06:36:36 51°15.207 2°49.489 262.9 13 260 14.3
2004-06-08 06:36:40 51°15.204 2°49.466 263.2 12.9 260 14.3
2004-06-08 06:36:46 51°15.2 2°49.432 263.2 13 259 14.4
2004-06-08 06:36:50 51°15.198 2°49.41 263.2 13 261 14.4
2004-06-08 06:36:56 51°15.194 2°49.376 263.6 13 260 14.4
2004-06-08 06:37:00 51°15.192 2°49.353 263.4 13 260 14.4
2004-06-08 06:37:05 51°15.188 2°49.325 263.3 13 260 14.4
2004-06-08 06:37:10 51°15.185 2°49.296 263.3 13 260 14.4
2004-06-08 06:37:16 51°15.181 2°49.262 263.3 13 260 14.4
2004-06-08 06:37:21 51°15.178 2°49.234 263.3 13.1 260 14.4
2004-06-08 06:37:26 51°15.175 2°49.205 263.4 13.1 260 14.4
2004-06-08 06:37:30 51°15.172 2°49.182 263.5 13.1 260 14.4
2004-06-08 06:37:36 51°15.168 2°49.148 263.4 13.1 260 14.4
2004-06-08 06:37:40 51°15.166 2°49.125 263.2 13.1 259 14.4
2004-06-08 06:37:45 51°15.162 2°49.097 263 13.1 260 14.4
2004-06-08 06:37:49 51°15.16 2°49.074 263.2 13.1 260 14.4
2004-06-08 06:37:56 51°15.156 2°49.034 263.2 13.1 260 14.4
2004-06-08 06:37:59 51°15.154 2°49.017 263.5 13.1 260 14.4
2004-06-08 06:38:05 51°15.151 2°48.983 263.6 13.1 261 14.4
2004-06-08 06:38:10 51°15.147 2°48.954 263.5 13.1 260 14.4
2004-06-08 06:38:15 51°15.144 2°48.925 263.1 13.1 260 14.4
2004-06-08 06:38:20 51°15.141 2°48.897 262.9 13.1 260 14.4
2004-06-08 06:38:26 51°15.137 2°48.863 262.8 13.1 260 14.4
2004-06-08 06:38:29 51°15.135 2°48.846 262.8 13.1 260 14.3
2004-06-08 06:38:36 51°15.131 2°48.805 262.8 13.1 260 14.4
2004-06-08 06:38:41 51°15.128 2°48.777 263.2 13.1 261 14.4
2004-06-08 06:38:45 51°15.126 2°48.754 263.5 13.1 261 14.4
2004-06-08 06:38:50 51°15.123 2°48.725 263.5 13.1 260 14.4
2004-06-08 06:38:56 51°15.119 2°48.691 263.4 13.1 260 14.4
2004-06-08 06:39:01 51°15.116 2°48.663 263.2 13.1 259 14.4
2004-06-08 06:39:06 51°15.112 2°48.634 262.8 13.1 260 14.4
2004-06-08 06:39:10 51°15.11 2°48.612 262.6 13.1 259 14.4
2004-06-08 06:39:16 51°15.105 2°48.578 262.2 13.1 260 14.4
2004-06-08 06:39:20 51°15.103 2°48.555 262.1 13.1 259 14.4
2004-06-08 06:39:25 51°15.099 2°48.526 262.1 13.1 259 14.4
2004-06-08 06:39:30 51°15.096 2°48.498 262.1 13.1 260 14.4
2004-06-08 06:39:36 51°15.092 2°48.464 262.4 13.1 259 14.4
2004-06-08 06:39:41 51°15.089 2°48.435 262.7 13.1 260 14.5
2004-06-08 06:39:46 51°15.086 2°48.407 263 13.1 260 14.4
2004-06-08 06:39:50 51°15.084 2°48.384 263.4 13.1 260 14.5
2004-06-08 06:39:55 51°15.081 2°48.355 263.5 13.1 261 14.5
2004-06-08 06:40:01 51°15.077 2°48.321 263.5 13.1 260 14.5
2004-06-08 06:40:04 51°15.075 2°48.304 263.2 13.1 260 14.5
2004-06-08 06:40:10 51°15.071 2°48.27 262.7 13.1 260 14.5
2004-06-08 06:40:16 51°15.067 2°48.236 262.4 13.1 259 14.5
2004-06-08 06:40:21 51°15.064 2°48.207 262.2 13.1 259 14.5
2004-06-08 06:40:26 51°15.06 2°48.179 262 13.1 260 14.5
2004-06-08 06:40:30 51°15.058 2°48.156 262.1 13.1 259 14.5
2004-06-08 06:40:36 51°15.054 2°48.122 262.1 13.1 260 14.4
2004-06-08 06:40:41 51°15.051 2°48.093 262.4 13.1 260 14.5
2004-06-08 06:40:46 51°15.048 2°48.065 262.8 13.1 261 14.5
2004-06-08 06:40:50 51°15.045 2°48.042 263.1 13.1 261 14.4
2004-06-08 06:40:56 51°15.042 2°48.008 263.4 13.1 261 14.4
2004-06-08 06:41:00 51°15.04 2°47.985 263.5 13.1 261 14.5
2004-06-08 06:41:05 51°15.037 2°47.956 263.5 13.1 261 14.4
2004-06-08 06:41:10 51°15.034 2°47.928 263.4 13.1 260 14.4
2004-06-08 06:41:14 51°15.032 2°47.905 263.4 13.1 261 14.4
2004-06-08 06:41:21 51°15.028 2°47.865 263.4 13.1 261 14.4
2004-06-08 06:41:25 51°15.026 2°47.842 263.4 13.1 261 14.3
2004-06-08 06:41:29 51°15.023 2°47.819 263.5 13.1 261 14.3
2004-06-08 06:41:36 51°15.019 2°47.779 263.5 13.1 261 14.2
2004-06-08 06:41:41 51°15.017 2°47.75 263.6 13.1 261 14.1
2004-06-08 06:41:45 51°15.014 2°47.727 263.7 13.1 261 14
2004-06-08 06:41:48 51°15.013 2°47.71 263.8 13.1 261 14
2004-06-08 06:41:58 51°15.007 2°47.653 263.7 13.1 261 13.7
2004-06-08 06:42:04 51°15.004 2°47.619 263.5 13.1 261 13.6
2004-06-08 06:42:09 51°15.001 2°47.59 263.4 13.1 261 13.4
2004-06-08 06:42:13 51°14.999 2°47.567 263.4 13 261 13.4
2004-06-08 06:42:18 51°14.996 2°47.539 263.2 13.1 260 13.3
2004-06-08 06:42:22 51°14.994 2°47.516 263 13.1 261 13
2004-06-08 06:42:29 51°14.989 2°47.476 262.9 13 260 12.7
2004-06-08 06:42:34 51°14.986 2°47.448 262.7 13 260 12.6
2004-06-08 06:42:38 51°14.984 2°47.425 262.6 13.1 260 12.8
2004-06-08 06:42:44 51°14.98 2°47.391 262.8 13 261 12.2
2004-06-08 06:42:49 51°14.977 2°47.363 262.8 13 261 12.2
2004-06-08 06:42:53 51°14.975 2°47.34 263 13 261 12.5
2004-06-08 06:42:58 51°14.972 2°47.311 263.1 13 261 12.2
2004-06-08 06:43:04 51°14.969 2°47.277 263.1 13 261 12.1
2004-06-08 06:43:09 51°14.966 2°47.249 263.4 13 261 12
2004-06-08 06:43:13 51°14.964 2°47.226 263.5 13 262 12
2004-06-08 06:43:18 51°14.961 2°47.198 263.8 13 261 11.7
2004-06-08 06:43:22 51°14.959 2°47.175 263.6 12.9 261 11.8
2004-06-08 06:43:28 51°14.955 2°47.141 263 13 260 11.7
2004-06-08 06:43:34 51°14.951 2°47.108 262.7 12.9 260 11.4
2004-06-08 06:43:36 51°14.95 2°47.096 262.4 12.9 260 11.3
2004-06-08 06:43:45 51°14.945 2°47.046 262.2 12.9 260 11.1
2004-06-08 06:43:51 51°14.941 2°47.012 262.7 12.9 260 11.2
2004-06-08 06:43:57 51°14.938 2°46.978 262.9 12.9 261 11
2004-06-08 06:44:01 51°14.936 2°46.955 263.3 12.9 261 10.9
2004-06-08 06:44:07 51°14.933 2°46.922 263.8 12.9 262 11
2004-06-08 06:44:10 51°14.931 2°46.905 263.7 12.9 261 10.8
2004-06-08 06:44:17 51°14.927 2°46.865 263.7 12.9 262 10.8
2004-06-08 06:44:22 51°14.925 2°46.837 264 13 261 10.7
2004-06-08 06:44:26 51°14.923 2°46.814 263.9 13 262 10.6
2004-06-08 06:44:32 51°14.919 2°46.78 264 12.9 261 10.5
2004-06-08 06:44:36 51°14.917 2°46.757 263.6 12.9 262 10.6
2004-06-08 06:44:40 51°14.915 2°46.735 263.3 13 261 10.6
2004-06-08 06:44:49 51°14.91 2°46.684 263.4 13 261 10.6
2004-06-08 06:44:56 51°14.906 2°46.644 263.4 13 261 10.6
2004-06-08 06:45:01 51°14.903 2°46.616 263.8 13 261 10.5
2004-06-08 06:45:06 51°14.901 2°46.587 263.8 13 262 10.5
2004-06-08 06:45:10 51°14.899 2°46.564 263.8 13 262 10.5
2004-06-08 06:45:16 51°14.895 2°46.53 264 13 262 10.5
2004-06-08 06:45:21 51°14.893 2°46.502 263.6 13.1 261 10.6
2004-06-08 06:45:26 51°14.89 2°46.473 263.4 13.1 261 10.6
2004-06-08 06:45:30 51°14.888 2°46.451 263.4 13 261 10.5
2004-06-08 06:45:36 51°14.884 2°46.416 263.4 13.1 261 10.6
2004-06-08 06:45:41 51°14.882 2°46.388 263.6 13.1 262 10.6
2004-06-08 06:45:45 51°14.88 2°46.365 263.9 13.1 261 10.6
2004-06-08 06:45:50 51°14.877 2°46.336 263.8 13.1 262 10.7
2004-06-08 06:45:53 51°14.876 2°46.319 264.1 13.1 261 10.7
2004-06-08 06:46:00 51°14.872 2°46.279 263.7 13.1 261 10.7
2004-06-08 06:46:05 51°14.869 2°46.25 263.4 13.1 261 10.7
2004-06-08 06:46:10 51°14.866 2°46.221 263.4 13.1 261 10.8
2004-06-08 06:46:15 51°14.863 2°46.193 263.4 13.2 262 10.8
2004-06-08 06:46:20 51°14.86 2°46.164 263.6 13.2 261 10.9
2004-06-08 06:46:25 51°14.858 2°46.135 263.7 13.1 262 11
2004-06-08 06:46:30 51°14.855 2°46.106 263.7 13.1 261 11
2004-06-08 06:46:36 51°14.852 2°46.072 263.8 13.2 262 11.1
2004-06-08 06:46:40 51°14.849 2°46.049 263.8 13.1 261 11.2
2004-06-08 06:46:46 51°14.846 2°46.014 263.3 13.2 261 11.2
2004-06-08 06:46:50 51°14.843 2°45.991 262.7 13.2 260 11.5
2004-06-08 06:46:53 51°14.841 2°45.974 262.2 13.2 260 11.6
2004-06-08 06:47:01 51°14.835 2°45.929 261.2 13.2 258 11.7
2004-06-08 06:47:05 51°14.832 2°45.906 260.9 13.2 258 11.8
2004-06-08 06:47:10 51°14.829 2°45.877 260.7 13.2 258 11.8
2004-06-08 06:47:16 51°14.824 2°45.843 260.7 13.2 258 11.9
2004-06-08 06:47:21 51°14.821 2°45.814 260.7 13.2 259 12.1
2004-06-08 06:47:25 51°14.818 2°45.791 260.7 13.2 258 12
2004-06-08 06:47:29 51°14.815 2°45.768 260.8 13.3 259 12.3
2004-06-08 06:47:36 51°14.81 2°45.728 261.4 13.2 259 12.3
2004-06-08 06:47:40 51°14.807 2°45.705 261.3 13.2 259 12.5
2004-06-08 06:47:44 51°14.804 2°45.682 261.2 13.2 259 12.5
2004-06-08 06:47:49 51°14.801 2°45.653 261 13.2 258 12.6
2004-06-08 06:48:01 51°14.791 2°45.584 260.6 13.2 258 12.8
2004-06-08 06:48:08 51°14.786 2°45.544 260.6 13.2 258 12.9
2004-06-08 06:48:13 51°14.783 2°45.515 260.8 13.2 258 12.9
2004-06-08 06:48:18 51°14.779 2°45.486 261 13.3 259 13.1
2004-06-08 06:48:23 51°14.775 2°45.458 261.2 13.3 258 13.1
2004-06-08 06:48:28 51°14.772 2°45.429 261.3 13.3 259 13.2
2004-06-08 06:48:33 51°14.769 2°45.4 261.6 13.3 259 13.4
2004-06-08 06:48:38 51°14.765 2°45.371 261.7 13.3 259 13.5
2004-06-08 06:48:42 51°14.762 2°45.348 261.4 13.3 259 13.5
2004-06-08 06:48:48 51°14.757 2°45.314 261 13.3 259 13.6
2004-06-08 06:48:53 51°14.754 2°45.285 260.6 13.3 258 13.7
2004-06-08 06:48:58 51°14.75 2°45.256 260.4 13.3 258 13.8
2004-06-08 06:49:02 51°14.747 2°45.233 260.4 13.3 258 13.9
2004-06-08 06:49:08 51°14.742 2°45.198 260.8 13.3 259 14
2004-06-08 06:49:13 51°14.739 2°45.169 261.2 13.3 259 14.1
2004-06-08 06:49:18 51°14.736 2°45.141 261.5 13.3 259 14.1
2004-06-08 06:49:22 51°14.733 2°45.117 261.9 13.3 260 14.3
2004-06-08 06:49:28 51°14.729 2°45.083 261.9 13.3 259 14.3
2004-06-08 06:49:32 51°14.726 2°45.06 261.7 13.3 259 14.5
2004-06-08 06:49:38 51°14.722 2°45.025 261.5 13.3 259 14.6
2004-06-08 06:49:42 51°14.719 2°45.002 260.9 13.3 258 14.8
2004-06-08 06:49:48 51°14.714 2°44.967 260.7 13.4 259 14.8
2004-06-08 06:49:52 51°14.712 2°44.944 261.2 13.3 259 14.9
2004-06-08 06:49:58 51°14.707 2°44.91 261.4 13.3 259 15
2004-06-08 06:50:02 51°14.705 2°44.886 261.3 13.4 259 15.2
2004-06-08 06:50:08 51°14.7 2°44.852 261.3 13.3 259 15.3
2004-06-08 06:50:12 51°14.697 2°44.829 261.2 13.3 259 15.3
2004-06-08 06:50:15 51°14.695 2°44.812 261 13.3 259 15.4
2004-06-08 06:50:22 51°14.691 2°44.771 261.2 13.3 259 15.5
2004-06-08 06:50:28 51°14.686 2°44.737 261.4 13.3 260 15.6
2004-06-08 06:50:32 51°14.684 2°44.714 261.5 13.3 260 15.6
2004-06-08 06:50:36 51°14.681 2°44.691 261.7 13.3 260 15.7
2004-06-08 06:50:46 51°14.674 2°44.633 262 13.2 259 15.9
2004-06-08 06:50:52 51°14.67 2°44.598 261.3 13.3 259 15.9
2004-06-08 06:50:56 51°14.667 2°44.576 261.1 13.3 259 15.9
2004-06-08 06:51:00 51°14.665 2°44.553 261 13.2 259 16
2004-06-08 06:51:07 51°14.66 2°44.513 260.9 13.2 258 16.1
2004-06-08 06:51:12 51°14.656 2°44.484 260.9 13.2 259 16.1
2004-06-08 06:51:17 51°14.653 2°44.455 261.2 13.2 259 16.2
2004-06-08 06:51:21 51°14.65 2°44.432 261.3 13.2 260 16.3
2004-06-08 06:51:26 51°14.647 2°44.403 261.4 13.2 260 16.3
2004-06-08 06:51:32 51°14.643 2°44.369 261.6 13.2 260 16.5
2004-06-08 06:51:36 51°14.64 2°44.346 261.6 13.2 259 16.6
2004-06-08 06:51:42 51°14.635 2°44.312 261.1 13.2 259 16.5
2004-06-08 06:51:46 51°14.632 2°44.289 261 13.1 258 16.7
2004-06-08 06:51:52 51°14.627 2°44.256 260.5 13.1 258 16.7
2004-06-08 06:51:56 51°14.625 2°44.232 260.3 13.2 259 16.9
2004-06-08 06:52:02 51°14.62 2°44.199 260.9 13.2 259 17
2004-06-08 06:52:07 51°14.616 2°44.17 260.8 13.2 259 17.1
2004-06-08 06:52:12 51°14.613 2°44.141 260.7 13.2 258 17.1
2004-06-08 06:52:16 51°14.61 2°44.118 261.1 13.1 259 17.3
2004-06-08 06:52:22 51°14.605 2°44.084 261.2 13.2 258 17.3
2004-06-08 06:52:26 51°14.603 2°44.061 261.2 13.3 259 17.4
2004-06-08 06:52:32 51°14.599 2°44.027 261.7 13.2 259 17.4
2004-06-08 06:52:36 51°14.596 2°44.004 262.2 13.1 260 17.5
2004-06-08 06:52:42 51°14.592 2°43.97 262 13.2 259 17.2
2004-06-08 06:52:46 51°14.589 2°43.947 261.3 13.2 259 16.7
2004-06-08 06:52:50 51°14.586 2°43.924 261.2 13.2 259 17
2004-06-08 06:52:57 51°14.581 2°43.884 261.2 13.1 259 17.3
2004-06-08 06:53:01 51°14.578 2°43.861 261 13.2 259 17
2004-06-08 06:53:05 51°14.575 2°43.838 261 13.2 259 17.5
2004-06-08 06:53:11 51°14.571 2°43.804 261.2 13.2 259 17.2
2004-06-08 06:53:17 51°14.567 2°43.77 261.4 13.2 259 17.2
2004-06-08 06:53:22 51°14.564 2°43.741 261.5 13.2 260 17.5
2004-06-08 06:53:26 51°14.562 2°43.718 261.8 13.2 259 17.7
2004-06-08 06:53:29 51°14.56 2°43.7 261.8 13.2 260 17.6
2004-06-08 06:53:37 51°14.554 2°43.654 261.6 13.2 259 17.2
2004-06-08 06:53:41 51°14.552 2°43.631 261.5 13.2 259 17
2004-06-08 06:53:45 51°14.549 2°43.608 261.4 13.2 259 17.2
2004-06-08 06:53:51 51°14.545 2°43.573 261.4 13.2 260 17.4
2004-06-08 06:53:57 51°14.541 2°43.539 261.4 13.2 260 17.5
2004-06-08 06:54:01 51°14.538 2°43.516 261.4 13.2 259 17.4
2004-06-08 06:54:07 51°14.534 2°43.481 261.5 13.3 260 17.5
2004-06-08 06:54:10 51°14.532 2°43.464 261.8 13.2 260 17.4
2004-06-08 06:54:17 51°14.528 2°43.423 261.8 13.2 260 17.8
2004-06-08 06:54:22 51°14.524 2°43.395 261.8 13.3 260 18.1
2004-06-08 06:54:25 51°14.523 2°43.377 261.8 13.2 260 18
2004-06-08 06:54:31 51°14.519 2°43.343 261.8 13.2 260 17.7
2004-06-08 06:54:36 51°14.516 2°43.314 261.7 13.3 260 18
2004-06-08 06:54:41 51°14.513 2°43.285 261.7 13.2 260 17.9
2004-06-08 06:54:46 51°14.509 2°43.257 261.5 13.2 260 18
2004-06-08 06:54:52 51°14.505 2°43.222 261.5 13.2 260 18.1
2004-06-08 06:54:55 51°14.503 2°43.205 261.3 13.2 260 18.3
2004-06-08 06:55:02 51°14.499 2°43.165 261.2 13.2 259 18.3
2004-06-08 06:55:07 51°14.495 2°43.136 261.1 13.2 259 18.2
2004-06-08 06:55:12 51°14.492 2°43.107 261 13.2 259 18.3
2004-06-08 06:55:16 51°14.489 2°43.085 260.8 13.2 259 18.4
2004-06-08 06:55:21 51°14.485 2°43.056 260.8 13.2 259 18.5
2004-06-08 06:55:26 51°14.482 2°43.027 260.8 13.2 259 18.5
2004-06-08 06:55:32 51°14.478 2°42.993 260.8 13.2 259 18.5
2004-06-08 06:55:37 51°14.474 2°42.964 260.8 13.2 259 18.4
2004-06-08 06:55:42 51°14.471 2°42.936 260.8 13.2 260 18.5
2004-06-08 06:55:45 51°14.469 2°42.918 261.2 13.2 259 18.5
2004-06-08 06:55:52 51°14.464 2°42.878 261.2 13.2 260 18.5
2004-06-08 06:55:56 51°14.462 2°42.855 261.6 13.2 260 18.4
2004-06-08 06:56:01 51°14.458 2°42.827 261.7 13.2 260 18.5
2004-06-08 06:56:06 51°14.455 2°42.798 261.7 13.2 260 18.5
2004-06-08 06:56:12 51°14.451 2°42.764 261.7 13.2 260 18.5
2004-06-08 06:56:16 51°14.449 2°42.741 261.6 13.2 260 18.5
2004-06-08 06:56:21 51°14.445 2°42.712 261.6 13.2 259 18.5
2004-06-08 06:56:26 51°14.442 2°42.684 261.2 13.2 259 18.4
2004-06-08 06:56:32 51°14.438 2°42.649 261.2 13.2 259 18.5
2004-06-08 06:56:35 51°14.436 2°42.632 261.3 13.2 260 18.4
2004-06-08 06:56:42 51°14.431 2°42.591 261.5 13.2 260 18.4
2004-06-08 06:56:46 51°14.429 2°42.568 261.7 13.2 260 18.5
2004-06-08 06:56:52 51°14.425 2°42.534 261.7 13.3 260 18.4
2004-06-08 06:56:56 51°14.422 2°42.51 261.7 13.2 260 18.3
2004-06-08 06:57:06 51°14.415 2°42.453 261.3 13.3 260 18.4
2004-06-08 06:57:12 51°14.412 2°42.419 261.3 13.3 260 18.3
2004-06-08 06:57:16 51°14.409 2°42.396 262 13.3 260 18.4
2004-06-08 06:57:20 51°14.407 2°42.372 262.1 13.2 261 18.3
2004-06-08 06:57:27 51°14.403 2°42.332 262.2 13.3 260 18.5
2004-06-08 06:57:32 51°14.4 2°42.303 262.2 13.3 261 18.4
2004-06-08 06:57:37 51°14.397 2°42.275 261.7 13.2 260 18.4
2004-06-08 06:57:41 51°14.394 2°42.252 261.2 13.2 259 18.5
2004-06-08 06:57:46 51°14.391 2°42.223 261 13.3 260 18.4
2004-06-08 06:57:52 51°14.386 2°42.188 261.3 13.3 259 18.5
2004-06-08 06:57:56 51°14.384 2°42.165 261.5 13.2 260 18.3
2004-06-08 06:58:02 51°14.38 2°42.131 261.2 13.2 259 18.3
2004-06-08 06:58:06 51°14.377 2°42.108 260.9 13.2 259 18.3
2004-06-08 06:58:12 51°14.373 2°42.073 260.9 13.2 259 18
2004-06-08 06:58:16 51°14.37 2°42.05 261 13.3 260 18
2004-06-08 06:58:22 51°14.367 2°42.016 261.5 13.2 260 17.9
2004-06-08 06:58:27 51°14.364 2°41.987 261.5 13.3 260 17.9
2004-06-08 06:58:30 51°14.362 2°41.97 261.3 13.3 260 17.8
2004-06-08 06:58:37 51°14.357 2°41.929 261.4 13.3 260 17.9
2004-06-08 06:58:41 51°14.355 2°41.906 261.7 13.3 260 17.8
2004-06-08 06:58:45 51°14.352 2°41.883 261.3 13.2 259 17.6
2004-06-08 06:58:51 51°14.347 2°41.849 260.5 13.3 258 17.5
2004-06-08 06:58:57 51°14.342 2°41.814 259.8 13.3 257 17.4
2004-06-08 06:59:02 51°14.338 2°41.786 259.2 13.3 257 17.2
2004-06-08 06:59:06 51°14.335 2°41.763 259.2 13.3 257 17
2004-06-08 06:59:12 51°14.33 2°41.728 259.9 13.3 258 16.6
2004-06-08 06:59:17 51°14.326 2°41.7 260.6 13.3 259 15.7
2004-06-08 06:59:22 51°14.323 2°41.671 261.1 13.3 259 16.3
2004-06-08 06:59:24 51°14.322 2°41.659 261.6 13.3 259 16.6
2004-06-08 06:59:32 51°14.316 2°41.613 262 13.3 260 16.5
2004-06-08 06:59:37 51°14.313 2°41.584 262 13.3 259 16.4
2004-06-08 06:59:42 51°14.309 2°41.555 261.8 13.3 259 16.3
2004-06-08 06:59:45 51°14.307 2°41.538 261.3 13.2 259 16
2004-06-08 06:59:52 51°14.302 2°41.498 261.2 13.2 259 16
2004-06-08 06:59:57 51°14.299 2°41.47 261.2 13.2 259 15.9
2004-06-08 07:00:01 51°14.296 2°41.447 261.2 13.2 259 15.9
2004-06-08 07:00:06 51°14.292 2°41.418 261.2 13.2 259 15.8
2004-06-08 07:00:12 51°14.288 2°41.384 261.4 13.2 260 15.6
2004-06-08 07:00:17 51°14.286 2°41.355 261.9 13.2 260 15.5
2004-06-08 07:00:21 51°14.283 2°41.332 263 13.3 262 15.5
2004-06-08 07:00:24 51°14.282 2°41.315 264.5 13.2 263 15.4
2004-06-08 07:00:32 51°14.279 2°41.268 265.8 13.2 264 15.3
2004-06-08 07:00:35 51°14.278 2°41.251 267.1 13.2 265 15.3
2004-06-08 07:00:41 51°14.277 2°41.216 267.8 13.2 265 15.3
2004-06-08 07:00:46 51°14.275 2°41.187 268.4 13.2 266 15.3
2004-06-08 07:00:52 51°14.274 2°41.152 268.5 13.2 266 15.5
2004-06-08 07:00:56 51°14.272 2°41.128 268.2 13.2 265 15.7
2004-06-08 07:01:01 51°14.271 2°41.099 268 13.3 266 15.8
2004-06-08 07:01:07 51°14.269 2°41.064 268 13.3 265 15.8
2004-06-08 07:01:12 51°14.267 2°41.035 268.4 13.2 266 15.6
2004-06-08 07:01:22 51°14.264 2°40.977 268.2 13.3 266 14.7
2004-06-08 07:01:28 51°14.262 2°40.942 268.2 13.3 265 15.2
2004-06-08 07:01:33 51°14.261 2°40.913 268.2 13.3 265 15.3
2004-06-08 07:01:38 51°14.259 2°40.884 268.1 13.3 265 15.6
2004-06-08 07:01:42 51°14.258 2°40.86 268 13.3 265 15.7
2004-06-08 07:01:48 51°14.256 2°40.825 268.2 13.3 265 15.8
2004-06-08 07:01:52 51°14.255 2°40.801 267.8 13.4 265 15.8
2004-06-08 07:01:56 51°14.253 2°40.778 267.5 13.3 265 15.9
2004-06-08 07:02:04 51°14.251 2°40.731 267.6 13.3 265 15.3
2004-06-08 07:02:09 51°14.249 2°40.701 267.6 13.4 265 15
2004-06-08 07:02:16 51°14.247 2°40.66 268 13.3 265 14.6
2004-06-08 07:02:21 51°14.246 2°40.631 267.9 13.2 265 14.3
2004-06-08 07:02:25 51°14.245 2°40.608 267.9 13.3 266 14.2
2004-06-08 07:02:30 51°14.244 2°40.579 268.2 13.3 266 14.2
2004-06-08 07:02:36 51°14.242 2°40.544 268.4 13.3 266 14.4
2004-06-08 07:02:41 51°14.241 2°40.514 267.8 13.3 265 14.7
2004-06-08 07:02:43 51°14.24 2°40.503 267.5 13.3 265 14.8
2004-06-08 07:02:49 51°14.238 2°40.467 266.9 13.3 265 15
2004-06-08 07:02:55 51°14.236 2°40.432 266.9 13.4 265 15.2
2004-06-08 07:03:00 51°14.235 2°40.402 267.3 13.4 265 15.3
2004-06-08 07:03:05 51°14.233 2°40.372 267.3 13.4 265 15.3
2004-06-08 07:03:10 51°14.231 2°40.343 267.3 13.4 265 15.3
2004-06-08 07:03:16 51°14.229 2°40.307 267.1 13.5 265 15.2
2004-06-08 07:03:20 51°14.228 2°40.283 267.1 13.5 266 15
2004-06-08 07:03:25 51°14.227 2°40.254 267.5 13.5 265 14.8
2004-06-08 07:03:30 51°14.226 2°40.224 267.8 13.4 266 14.6
2004-06-08 07:03:36 51°14.224 2°40.188 267.9 13.4 266 13.9
2004-06-08 07:03:41 51°14.223 2°40.159 267.9 13.5 267 12.7
2004-06-08 07:03:45 51°14.222 2°40.135 267.9 13.4 265 12.9
2004-06-08 07:03:49 51°14.221 2°40.112 267.6 13.3 266 14
2004-06-08 07:03:56 51°14.218 2°40.071 267.1 13.4 265 14.7
2004-06-08 07:04:00 51°14.217 2°40.047 266.6 13.5 265 14.8
2004-06-08 07:04:05 51°14.216 2°40.017 266.5 13.5 265 14.9
2004-06-08 07:04:10 51°14.214 2°39.987 266.5 13.5 265 14.9
2004-06-08 07:04:16 51°14.212 2°39.952 266.7 13.4 265 14.8
2004-06-08 07:04:21 51°14.211 2°39.922 267 13.4 265 14.6
2004-06-08 07:04:25 51°14.21 2°39.899 267 13.4 266 14.4
2004-06-08 07:04:29 51°14.208 2°39.875 267.3 13.5 266 14.1
2004-06-08 07:04:35 51°14.207 2°39.839 267.8 13.4 267 14.1
2004-06-08 07:04:40 51°14.206 2°39.81 267.8 13.3 266 14
2004-06-08 07:04:45 51°14.205 2°39.78 267.4 13.3 266 14.1
2004-06-08 07:04:50 51°14.204 2°39.751 267.3 13.4 266 14.3
2004-06-08 07:04:56 51°14.202 2°39.716 267.3 13.3 266 14.4
2004-06-08 07:05:01 51°14.201 2°39.686 267.1 13.3 266 14.4
2004-06-08 07:05:06 51°14.2 2°39.657 267 13.3 266 14.4
2004-06-08 07:05:10 51°14.199 2°39.633 267 13.2 266 14.5
2004-06-08 07:05:16 51°14.197 2°39.598 266.8 13.3 266 14.5
2004-06-08 07:05:21 51°14.196 2°39.569 266.6 13.3 266 14.5
2004-06-08 07:05:25 51°14.195 2°39.546 266.7 13.2 266 14.6
2004-06-08 07:05:30 51°14.193 2°39.517 266.9 13.2 266 14.4
2004-06-08 07:05:35 51°14.192 2°39.487 266.7 13.3 266 14.3
2004-06-08 07:05:40 51°14.191 2°39.458 267.1 13.2 267 14.4
2004-06-08 07:05:46 51°14.189 2°39.423 267.5 13.2 266 14.1
2004-06-08 07:05:49 51°14.189 2°39.406 267.4 13.2 266 14.3
2004-06-08 07:05:56 51°14.187 2°39.365 267.2 13.2 266 14.2
2004-06-08 07:06:00 51°14.186 2°39.342 267.1 13.2 266 14
2004-06-08 07:06:04 51°14.185 2°39.318 267.1 13.2 266 14.1
2004-06-08 07:06:09 51°14.183 2°39.29 267.1 13.2 265 14
2004-06-08 07:06:16 51°14.181 2°39.249 266.4 13.2 265 13.9
2004-06-08 07:06:21 51°14.179 2°39.22 266 13.2 264 14.2
2004-06-08 07:06:25 51°14.178 2°39.197 265.9 13.2 265 14
2004-06-08 07:06:30 51°14.177 2°39.168 266.5 13.2 265 13.7
2004-06-08 07:06:35 51°14.175 2°39.138 267 13.2 266 13
2004-06-08 07:06:40 51°14.174 2°39.11 267.3 13.2 266 12.2
2004-06-08 07:06:46 51°14.172 2°39.075 267.2 13.2 265 12.5
2004-06-08 07:06:49 51°14.171 2°39.057 266.9 13.2 265 12.6
2004-06-08 07:06:55 51°14.169 2°39.022 266.6 13.2 264 12.4
2004-06-08 07:07:01 51°14.167 2°38.987 266.5 13.3 265 13
2004-06-08 07:07:05 51°14.166 2°38.964 266.5 13.4 265 13
2004-06-08 07:07:10 51°14.164 2°38.934 267.3 13.4 266 13.3
2004-06-08 07:07:16 51°14.163 2°38.898 267.8 13.4 266 13.3
2004-06-08 07:07:21 51°14.162 2°38.869 267.9 13.4 266 12.8
2004-06-08 07:07:24 51°14.161 2°38.851 268.3 13.4 266 12.5
2004-06-08 07:07:30 51°14.159 2°38.816 268.3 13.4 266 12.8
2004-06-08 07:07:35 51°14.158 2°38.786 268 13.4 265 13.4
2004-06-08 07:07:41 51°14.156 2°38.751 267.6 13.4 266 14
2004-06-08 07:07:44 51°14.155 2°38.733 267.7 13.5 266 13.9
2004-06-08 07:07:50 51°14.153 2°38.697 267.4 13.5 265 14.4
2004-06-08 07:07:56 51°14.151 2°38.662 267.5 13.5 266 14.8
2004-06-08 07:08:00 51°14.15 2°38.638 267.5 13.5 266 15
2004-06-08 07:08:04 51°14.149 2°38.614 267.4 13.5 264 15.9
2004-06-08 07:08:11 51°14.146 2°38.573 267.3 13.5 265 16.5
2004-06-08 07:08:15 51°14.144 2°38.55 266.3 13.5 262 16.5
2004-06-08 07:08:21 51°14.14 2°38.514 264.3 13.5 261 16.8
2004-06-08 07:08:25 51°14.137 2°38.491 262.9 13.4 259 16.8
2004-06-08 07:08:30 51°14.134 2°38.462 261.6 13.4 259 17
2004-06-08 07:08:36 51°14.129 2°38.427 260.7 13.4 258 17.7
2004-06-08 07:08:40 51°14.126 2°38.403 260.5 13.4 258 17.6
2004-06-08 07:08:44 51°14.122 2°38.38 260.1 13.4 257 17.7
2004-06-08 07:08:51 51°14.117 2°38.34 259.6 13.5 258 18
2004-06-08 07:08:55 51°14.113 2°38.316 259.6 13.5 257 17.9
2004-06-08 07:09:01 51°14.108 2°38.282 259.5 13.5 258 18.4
2004-06-08 07:09:04 51°14.106 2°38.264 259.8 13.5 257 18.6
2004-06-08 07:09:09 51°14.102 2°38.235 260 13.4 258 18.6
2004-06-08 07:09:16 51°14.096 2°38.194 260 13.4 257 18.7
2004-06-08 07:09:21 51°14.092 2°38.165 259.4 13.4 257 18.9
2004-06-08 07:09:25 51°14.089 2°38.142 259.5 13.4 258 18.3
2004-06-08 07:09:28 51°14.087 2°38.125 259.8 13.4 258 17.8
2004-06-08 07:09:35 51°14.081 2°38.084 260.2 13.4 258 17.8
2004-06-08 07:09:40 51°14.077 2°38.055 260.2 13.4 257 18.5
2004-06-08 07:09:45 51°14.073 2°38.027 259.8 13.4 257 18.5
2004-06-08 07:09:50 51°14.068 2°37.998 259.8 13.3 257 18.6
2004-06-08 07:10:00 51°14.057 2°37.942 254.7 13.3 252 19.1
2004-06-08 07:10:08 51°14.047 2°37.897 253.1 13.3 250 19.2
2004-06-08 07:10:13 51°14.04 2°37.87 251.8 13.3 249 18.5
2004-06-08 07:10:18 51°14.034 2°37.842 251.2 13.3 249 18.6
2004-06-08 07:10:22 51°14.028 2°37.821 251 13.2 248 18.9
2004-06-08 07:10:28 51°14.02 2°37.788 250.2 13.3 248 19.2
2004-06-08 07:10:33 51°14.013 2°37.761 249.9 13.4 247 19.4
2004-06-08 07:10:37 51°14.007 2°37.739 249.7 13.3 248 19.1
2004-06-08 07:10:41 51°14.001 2°37.718 249.6 13.3 248 19.2
2004-06-08 07:10:48 51°13.992 2°37.679 249.6 13.4 248 19.7
2004-06-08 07:10:52 51°13.986 2°37.657 250 13.4 249 19.7
2004-06-08 07:10:58 51°13.978 2°37.624 250.4 13.3 248 20.1
2004-06-08 07:11:02 51°13.973 2°37.602 250.7 13.4 249 19.7
2004-06-08 07:11:08 51°13.964 2°37.569 250.8 13.4 249 20.1
2004-06-08 07:11:12 51°13.959 2°37.548 250.4 13.4 248 20.1
2004-06-08 07:11:16 51°13.953 2°37.526 250.2 13.4 248 19.9
2004-06-08 07:11:22 51°13.945 2°37.493 250.2 13.4 248 20.2
2004-06-08 07:11:28 51°13.937 2°37.46 250.4 13.4 249 20.2
2004-06-08 07:11:32 51°13.931 2°37.438 250.5 13.4 248 20.1
2004-06-08 07:11:38 51°13.923 2°37.405 250.6 13.4 249 20.7
2004-06-08 07:11:41 51°13.919 2°37.388 251 13.4 249 21
2004-06-08 07:11:48 51°13.91 2°37.35 251.1 13.4 249 20.8
2004-06-08 07:11:52 51°13.905 2°37.328 251 13.4 249 20.7
2004-06-08 07:11:58 51°13.896 2°37.295 251 13.4 248 21.1
2004-06-08 07:12:02 51°13.891 2°37.273 250.8 13.4 249 20.8
2004-06-08 07:12:08 51°13.883 2°37.24 250.7 13.4 249 20.6
2004-06-08 07:12:12 51°13.877 2°37.217 250.4 13.4 249 20.9
2004-06-08 07:12:18 51°13.869 2°37.184 250.3 13.4 248 20.9
2004-06-08 07:12:22 51°13.864 2°37.162 250.4 13.4 249 20.7
2004-06-08 07:12:28 51°13.856 2°37.129 251 13.4 249 20.3
2004-06-08 07:12:33 51°13.849 2°37.102 251 13.4 249 20.7
2004-06-08 07:12:38 51°13.842 2°37.074 250.7 13.4 249 20.6
2004-06-08 07:12:41 51°13.838 2°37.058 250.7 13.4 249 20.7
2004-06-08 07:12:48 51°13.829 2°37.019 250.6 13.3 248 21.1
2004-06-08 07:12:52 51°13.823 2°36.997 250.2 13.4 248 20.9
2004-06-08 07:12:57 51°13.816 2°36.969 250.2 13.4 249 20.6
2004-06-08 07:13:01 51°13.811 2°36.947 250.3 13.4 249 20.7
2004-06-08 07:13:08 51°13.802 2°36.909 250.6 13.4 248 21.3
2004-06-08 07:13:13 51°13.795 2°36.881 250.6 13.4 249 21
2004-06-08 07:13:18 51°13.788 2°36.853 250.9 13.4 249 21.5
2004-06-08 07:13:21 51°13.785 2°36.837 251.1 13.4 249 21.1
2004-06-08 07:13:28 51°13.776 2°36.798 251.1 13.4 249 20.3
2004-06-08 07:13:33 51°13.769 2°36.771 251.1 13.3 249 20.8
2004-06-08 07:13:37 51°13.763 2°36.749 250.7 13.4 249 20.7
2004-06-08 07:13:42 51°13.756 2°36.722 250.5 13.3 248 21
2004-06-08 07:13:48 51°13.747 2°36.69 249 13.3 247 20.6
2004-06-08 07:13:52 51°13.741 2°36.668 247.5 13.3 245 20.4
2004-06-08 07:13:57 51°13.733 2°36.642 246.6 13.3 244 20.5
2004-06-08 07:14:02 51°13.725 2°36.615 246 13.3 244 20.2
2004-06-08 07:14:08 51°13.715 2°36.584 245.3 13.3 243 20.6
2004-06-08 07:14:12 51°13.708 2°36.563 244.8 13.3 243 20.4
2004-06-08 07:14:17 51°13.699 2°36.537 244.6 13.3 243 20.6
2004-06-08 07:14:22 51°13.691 2°36.511 244.1 13.3 243 19.8
2004-06-08 07:14:28 51°13.681 2°36.479 244.1 13.3 243 19.5
2004-06-08 07:14:32 51°13.674 2°36.459 244.5 13.3 243 19.8
2004-06-08 07:14:34 51°13.671 2°36.448 244.7 13.3 244 20
2004-06-08 07:14:47 51°13.65 2°36.38 245.1 13.3 243 20
2004-06-08 07:14:52 51°13.641 2°36.354 244.7 13.3 243 20
2004-06-08 07:14:56 51°13.634 2°36.333 244.3 13.3 243 20
2004-06-08 07:15:02 51°13.624 2°36.301 244.4 13.3 243 20
2004-06-08 07:15:07 51°13.616 2°36.275 244.4 13.4 242 20.1
2004-06-08 07:15:12 51°13.607 2°36.249 244.6 13.3 243 20.1
2004-06-08 07:15:17 51°13.599 2°36.223 244.5 13.4 243 19.6
2004-06-08 07:15:21 51°13.592 2°36.202 244.5 13.4 243 19.9
2004-06-08 07:15:25 51°13.585 2°36.181 244.6 13.4 242 19.5
2004-06-08 07:15:30 51°13.577 2°36.154 244.7 13.4 244 19.7
2004-06-08 07:15:37 51°13.565 2°36.117 244.9 13.4 244 19.3
2004-06-08 07:15:42 51°13.557 2°36.091 245.2 13.4 243 18.2
2004-06-08 07:15:45 51°13.551 2°36.075 244.9 13.4 243 18.1
2004-06-08 07:15:52 51°13.54 2°36.038 244.5 13.4 243 18.5
2004-06-08 07:15:57 51°13.532 2°36.012 244.9 13.4 243 18.7
2004-06-08 07:16:02 51°13.523 2°35.985 245.2 13.4 244 18.2
2004-06-08 07:16:05 51°13.518 2°35.969 245.4 13.4 244 17.4
2004-06-08 07:16:12 51°13.507 2°35.932 245.6 13.4 244 17.8
2004-06-08 07:16:15 51°13.502 2°35.916 245.4 13.4 244 18
2004-06-08 07:16:21 51°13.492 2°35.885 245.3 13.4 243 18.3
2004-06-08 07:16:26 51°13.484 2°35.858 245.1 13.4 243 18.2
2004-06-08 07:16:32 51°13.473 2°35.827 244.9 13.4 243 18.2
2004-06-08 07:16:36 51°13.466 2°35.805 244.7 13.4 243 18.1
2004-06-08 07:16:41 51°13.458 2°35.779 244.6 13.4 243 18
2004-06-08 07:16:45 51°13.451 2°35.758 244.5 13.4 243 18.5
2004-06-08 07:16:51 51°13.441 2°35.727 244.9 13.4 243 18.5
2004-06-08 07:16:57 51°13.432 2°35.695 245.4 13.4 244 18.3
2004-06-08 07:17:01 51°13.425 2°35.673 245.8 13.3 244 18.1
2004-06-08 07:17:05 51°13.419 2°35.652 246.1 13.3 245 18.2
2004-06-08 07:17:10 51°13.41 2°35.626 245.7 13.3 244 18.2
2004-06-08 07:17:17 51°13.399 2°35.589 245.5 13.2 243 17.9
2004-06-08 07:17:22 51°13.391 2°35.563 245.2 13.2 243 18.1
2004-06-08 07:17:26 51°13.384 2°35.543 245 13.2 243 18.1
2004-06-08 07:17:32 51°13.374 2°35.511 244.7 13.2 243 17.9
2004-06-08 07:17:37 51°13.366 2°35.485 244.8 13.1 243 17.8
2004-06-08 07:17:42 51°13.358 2°35.459 245.1 13.1 243 17.8
2004-06-08 07:17:44 51°13.355 2°35.449 245.3 13.2 244 17.8
2004-06-08 07:17:49 51°13.347 2°35.423 245.5 13.1 244 17.9
2004-06-08 07:17:56 51°13.336 2°35.386 245.5 13.1 243 17.9
2004-06-08 07:18:00 51°13.329 2°35.366 245.3 13.1 244 17.7
2004-06-08 07:18:04 51°13.322 2°35.345 244.9 13.1 243 18.1
2004-06-08 07:18:12 51°13.308 2°35.304 243.8 13.1 242 17.7
2004-06-08 07:18:17 51°13.3 2°35.279 243 13.1 242 17.7
2004-06-08 07:18:21 51°13.293 2°35.259 242.8 13.1 241 17.7
2004-06-08 07:18:27 51°13.282 2°35.229 242.4 13 240 17.5
2004-06-08 07:18:32 51°13.273 2°35.204 242.2 13 241 17.7
2004-06-08 07:18:37 51°13.264 2°35.178 242 13.1 240 17.4
2004-06-08 07:18:42 51°13.255 2°35.153 241.9 13.1 240 17.6
2004-06-08 07:18:46 51°13.248 2°35.133 241.8 13.1 241 17.7
2004-06-08 07:18:52 51°13.237 2°35.103 241.9 13 240 17.6
2004-06-08 07:18:57 51°13.228 2°35.078 241.9 13.1 241 17.4
2004-06-08 07:19:02 51°13.219 2°35.053 241.8 13.1 240 17.4
2004-06-08 07:19:06 51°13.212 2°35.033 241.8 13.1 241 17.4
2004-06-08 07:19:11 51°13.203 2°35.008 242.1 13 240 17.5
2004-06-08 07:19:17 51°13.192 2°34.978 242 13 241 17.7
2004-06-08 07:19:22 51°13.183 2°34.952 242.1 13.1 240 17.8
2004-06-08 07:19:25 51°13.178 2°34.937 242.2 13.1 241 17.6
2004-06-08 07:19:32 51°13.166 2°34.902 242.4 13 241 18
2004-06-08 07:19:37 51°13.157 2°34.877 242.5 13 241 17.8
2004-06-08 07:19:41 51°13.15 2°34.857 242.1 13.1 241 17.9
2004-06-08 07:19:46 51°13.141 2°34.831 241.9 13.1 241 18
2004-06-08 07:19:52 51°13.131 2°34.801 242.3 13.1 241 18.3
2004-06-08 07:19:53 51°13.129 2°34.796 242.4 13.1 241 18.2
2004-06-08 07:20:02 51°13.113 2°34.75 242.5 13.1 241 18
2004-06-08 07:20:06 51°13.106 2°34.73 242.5 13.1 241 18
2004-06-08 07:20:12 51°13.096 2°34.7 242.1 13 240 18.1
2004-06-08 07:20:16 51°13.089 2°34.68 241.9 13 241 17.8
2004-06-08 07:20:22 51°13.078 2°34.65 241.9 13 240 18.2
2004-06-08 07:20:26 51°13.071 2°34.63 241.8 13.1 241 18
2004-06-08 07:20:32 51°13.06 2°34.6 242.1 13 240 17.6
2004-06-08 07:20:35 51°13.055 2°34.585 241.7 13 240 18.1
2004-06-08 07:20:42 51°13.042 2°34.549 241.6 13.1 240 17.8
2004-06-08 07:20:46 51°13.035 2°34.529 241.6 13 240 17.7
2004-06-08 07:20:52 51°13.024 2°34.5 241.6 13 240 18.1
2004-06-08 07:20:54 51°13.021 2°34.49 241.3 13 240 17.5
2004-06-08 07:21:01 51°13.008 2°34.454 241.3 13.1 240 17.7
2004-06-08 07:21:05 51°13.001 2°34.434 241.3 13.1 240 18
2004-06-08 07:21:12 51°12.988 2°34.399 241.3 13 240 17.6
2004-06-08 07:21:17 51°12.979 2°34.374 241.3 13 240 17.9
2004-06-08 07:21:21 51°12.972 2°34.354 241.6 13.1 241 17.4
2004-06-08 07:21:26 51°12.963 2°34.329 242.1 13 241 17.5
2004-06-08 07:21:30 51°12.956 2°34.309 242.3 13.1 241 17.5
2004-06-08 07:21:37 51°12.944 2°34.273 242.5 13 241 17.9
2004-06-08 07:21:41 51°12.937 2°34.253 242.4 13.1 241 17.4
2004-06-08 07:21:45 51°12.93 2°34.233 242 13.1 241 17.7
2004-06-08 07:21:52 51°12.918 2°34.198 241.6 13 240 17.6
2004-06-08 07:21:57 51°12.909 2°34.173 241.6 13 241 17.4
2004-06-08 07:22:01 51°12.902 2°34.152 242.2 13 241 17.4
2004-06-08 07:22:07 51°12.891 2°34.122 242.4 13.1 241 17.6
2004-06-08 07:22:17 51°12.874 2°34.072 242.5 13.1 241 17.5
2004-06-08 07:22:20 51°12.869 2°34.056 242.4 13.1 242 17.4
2004-06-08 07:22:25 51°12.86 2°34.031 242.4 13.1 241 17.5
2004-06-08 07:22:33 51°12.846 2°33.991 242.6 13.1 241 17.4
2004-06-08 07:22:38 51°12.837 2°33.965 242.6 13.1 242 17.2
2004-06-08 07:22:41 51°12.832 2°33.95 242.7 13.1 242 17
2004-06-08 07:22:47 51°12.821 2°33.919 242.8 13.1 241 17.2
2004-06-08 07:22:52 51°12.813 2°33.894 242.7 13.1 241 16.7
2004-06-08 07:22:58 51°12.802 2°33.864 242.3 13 241 17
2004-06-08 07:23:03 51°12.793 2°33.839 242 13.1 240 17.1
2004-06-08 07:23:08 51°12.784 2°33.813 241.6 13.2 240 17
2004-06-08 07:23:12 51°12.777 2°33.793 241.6 13.1 241 16.8
2004-06-08 07:23:17 51°12.768 2°33.768 241.7 13 241 16.4
2004-06-08 07:23:22 51°12.759 2°33.743 241.8 13.1 241 16.7
2004-06-08 07:23:28 51°12.748 2°33.713 241.9 13.1 241 16.5
2004-06-08 07:23:33 51°12.74 2°33.687 242 13.1 241 16.1
2004-06-08 07:23:37 51°12.733 2°33.667 242.6 13 241 16.1
2004-06-08 07:23:41 51°12.726 2°33.647 242.8 13 241 15.8
2004-06-08 07:23:48 51°12.713 2°33.612 242.6 13.1 241 16
2004-06-08 07:23:52 51°12.706 2°33.591 242.3 13 241 15.9
2004-06-08 07:23:58 51°12.696 2°33.561 242.1 13 241 15.8
2004-06-08 07:24:00 51°12.692 2°33.551 242 13 241 15.7
2004-06-08 07:24:08 51°12.678 2°33.511 242 13 241 15.5
2004-06-08 07:24:12 51°12.671 2°33.491 242 13.1 241 15.7
2004-06-08 07:24:17 51°12.662 2°33.466 242 13.1 241 15.5
2004-06-08 07:24:21 51°12.656 2°33.446 242.4 13 242 15.5
2004-06-08 07:24:28 51°12.643 2°33.41 242.6 13 241 15.8
2004-06-08 07:24:32 51°12.636 2°33.39 242.5 13.1 241 15.7
2004-06-08 07:24:38 51°12.626 2°33.359 242.8 13.1 242 15.7
2004-06-08 07:24:42 51°12.619 2°33.339 243 13 242 15.7
2004-06-08 07:24:48 51°12.609 2°33.309 242.9 13 242 15.7
2004-06-08 07:24:53 51°12.6 2°33.284 242.4 13 241 15.8
2004-06-08 07:24:57 51°12.594 2°33.264 242 13 241 15.8
2004-06-08 07:25:02 51°12.585 2°33.239 242.2 13 241 15.7
2004-06-08 07:25:08 51°12.575 2°33.208 242.2 12.9 242 15.8
2004-06-08 07:25:13 51°12.566 2°33.183 242.6 13 242 15.5
2004-06-08 07:25:18 51°12.558 2°33.158 242.9 13 242 15.4
2004-06-08 07:25:22 51°12.551 2°33.137 243 13 242 15.4
2004-06-08 07:25:28 51°12.541 2°33.107 242.7 13 242 15.7
2004-06-08 07:25:31 51°12.536 2°33.092 242.3 13 242 15.6
2004-06-08 07:25:37 51°12.526 2°33.061 242.5 13 243 15.7
2004-06-08 07:25:41 51°12.519 2°33.041 243.8 13 244 15.7
2004-06-08 07:25:48 51°12.509 2°33.004 245.1 13.1 245 15.7
2004-06-08 07:25:56 51°12.497 2°32.962 246.8 13 246 15.4
2004-06-08 07:26:04 51°12.486 2°32.919 247.6 13.1 247 15.5
2004-06-08 07:26:09 51°12.478 2°32.893 247.9 13.1 246 15.5
2004-06-08 07:26:14 51°12.471 2°32.866 248 13.1 248 15.9
2004-06-08 07:26:18 51°12.466 2°32.845 248.1 13.1 246 15.6
2004-06-08 07:26:24 51°12.457 2°32.813 247.9 13.1 247 15.7
2004-06-08 07:26:29 51°12.45 2°32.787 248.1 13.1 246 16.3
2004-06-08 07:26:33 51°12.444 2°32.765 247.6 13.1 247 16.4
2004-06-08 07:26:37 51°12.439 2°32.744 247.7 13.1 247 16
2004-06-08 07:26:44 51°12.429 2°32.707 247.7 13.1 246 16.3
2004-06-08 07:26:48 51°12.423 2°32.686 247.5 13.1 246 16.2
2004-06-08 07:26:54 51°12.414 2°32.654 247.4 13.1 247 15.9
2004-06-08 07:26:58 51°12.408 2°32.633 247.4 13.1 246 16.4
2004-06-08 07:27:04 51°12.399 2°32.601 247.2 13.1 246 16.6
2004-06-08 07:27:08 51°12.393 2°32.58 247.2 13.1 246 16.4
2004-06-08 07:27:12 51°12.388 2°32.559 247.2 13.1 247 16.8
2004-06-08 07:27:19 51°12.377 2°32.522 247 13.1 246 16.9
2004-06-08 07:27:24 51°12.37 2°32.496 247 13.1 246 16.6
2004-06-08 07:27:29 51°12.363 2°32.469 247 13.1 246 16.8
2004-06-08 07:27:34 51°12.356 2°32.443 246.9 13.1 247 16.9
2004-06-08 07:27:38 51°12.35 2°32.422 247.8 13.1 247 17.3
2004-06-08 07:27:44 51°12.341 2°32.39 247.8 13.1 246 17.4
2004-06-08 07:27:49 51°12.334 2°32.363 247.3 13.1 246 16.9
2004-06-08 07:27:54 51°12.327 2°32.337 247.2 13.1 247 17.5
2004-06-08 07:27:57 51°12.322 2°32.321 247.3 13.1 246 17.2
2004-06-08 07:28:04 51°12.312 2°32.283 247.5 13.1 247 17.8
2004-06-08 07:28:09 51°12.305 2°32.256 247.7 13.2 247 17.8
2004-06-08 07:28:12 51°12.301 2°32.24 247.9 13.2 247 17.8
2004-06-08 07:28:15 51°12.296 2°32.225 248 13.1 247 17.9
2004-06-08 07:28:24 51°12.284 2°32.176 248.1 13.1 247 18
2004-06-08 07:28:29 51°12.276 2°32.15 248.1 13.2 247 18.3
2004-06-08 07:28:34 51°12.269 2°32.123 248.1 13.2 247 18.1
2004-06-08 07:28:37 51°12.265 2°32.107 247.6 13.1 246 18.6
2004-06-08 07:28:44 51°12.254 2°32.07 247.2 13.2 246 18.6
2004-06-08 07:28:48 51°12.248 2°32.048 247.1 13.3 246 18.6
2004-06-08 07:28:52 51°12.242 2°32.027 247.6 13.2 246 18.4
2004-06-08 07:28:57 51°12.235 2°32.001 247.7 13.2 246 18.8
2004-06-08 07:29:04 51°12.224 2°31.963 247.2 13.2 245 19.1
2004-06-08 07:29:08 51°12.218 2°31.942 247.3 13.3 246 18.9
2004-06-08 07:29:14 51°12.21 2°31.91 247.6 13.2 246 19
2004-06-08 07:29:18 51°12.204 2°31.888 247.7 13.2 246 19.3
2004-06-08 07:29:23 51°12.196 2°31.861 247.5 13.3 246 19.2
2004-06-08 07:29:28 51°12.189 2°31.834 247.3 13.4 246 19.4
2004-06-08 07:29:34 51°12.18 2°31.802 247.5 13.3 246 19.1
2004-06-08 07:29:38 51°12.174 2°31.781 247.5 13.3 246 19.5
2004-06-08 07:29:44 51°12.165 2°31.748 247.6 13.4 246 19.6
2004-06-08 07:29:49 51°12.157 2°31.721 247.9 13.3 246 20
2004-06-08 07:29:53 51°12.151 2°31.7 247.6 13.3 246 19.9
2004-06-08 07:29:59 51°12.142 2°31.668 247.1 13.3 245 20.4
2004-06-08 07:30:04 51°12.134 2°31.641 247.2 13.4 246 20.6
2004-06-08 07:30:09 51°12.127 2°31.614 247.2 13.4 246 20.2
2004-06-08 07:30:13 51°12.121 2°31.592 247.3 13.3 246 20.7
2004-06-08 07:30:19 51°12.112 2°31.56 247.5 13.3 246 21.2
2004-06-08 07:30:24 51°12.104 2°31.533 247.6 13.4 246 20.5
2004-06-08 07:30:29 51°12.097 2°31.506 247.9 13.3 246 20.9
2004-06-08 07:30:33 51°12.091 2°31.485 247.8 13.3 246 20.9
2004-06-08 07:30:37 51°12.084 2°31.463 247.3 13.4 245 21
2004-06-08 07:30:44 51°12.074 2°31.426 247.2 13.4 246 21.1
2004-06-08 07:30:48 51°12.068 2°31.404 247.2 13.4 246 21.7
2004-06-08 07:30:52 51°12.062 2°31.383 247.3 13.3 246 21.6
2004-06-08 07:30:58 51°12.053 2°31.35 247.6 13.3 246 21.2
2004-06-08 07:31:04 51°12.044 2°31.318 247.6 13.4 246 21.6
2004-06-08 07:31:08 51°12.038 2°31.296 247.6 13.4 246 21.5
2004-06-08 07:31:13 51°12.03 2°31.269 247.3 13.4 246 21.5
2004-06-08 07:31:18 51°12.022 2°31.242 246.9 13.4 245 21.6
2004-06-08 07:31:24 51°12.013 2°31.21 246.8 13.4 246 21.9
2004-06-08 07:31:28 51°12.007 2°31.189 247 13.4 246 21.9
2004-06-08 07:31:34 51°11.998 2°31.156 247 13.4 246 21.6